Time;durP1;ratioP1;P1;durP2;ratioP2;P2;SDS_P1;SDS_P2;PMS_P1;PMS_P2;Temp;Humidity;BMP_temperature;BMP_pressure;BME280_temperature;BME280_humidity;BME280_pressure;Samples;Min_cycle;Max_cycle;Signal;HPM_P1;HPM_P2
2022/08/10 00:00:24;;;;;;;2.45;1.88;;;14.80;79.30;;;;;;5038094;28;20180;-85
2022/08/10 00:02:54;;;;;;;7.93;2.25;;;14.80;79.50;;;;;;5055980;28;20807;-85
2022/08/10 00:05:21;;;;;;;5.67;2.00;;;14.70;79.80;;;;;;5056502;28;20161;-85
2022/08/10 00:07:47;;;;;;;2.93;1.90;;;14.60;80.50;;;;;;5038062;28;20187;-85
2022/08/10 00:10:16;;;;;;;4.60;2.37;;;14.60;80.70;;;;;;5054777;28;20172;-85
2022/08/10 00:12:42;;;;;;;6.03;2.50;;;14.50;80.80;;;;;;5038419;28;20183;-85
2022/08/10 00:15:10;;;;;;;2.40;2.20;;;14.40;80.90;;;;;;5038544;28;20212;-85
2022/08/10 00:17:35;;;;;;;10.60;2.37;;;14.40;80.90;;;;;;5056221;28;20646;-85
2022/08/10 00:20:01;;;;;;;6.63;2.00;;;14.40;80.90;;;;;;5056320;28;20251;-85
2022/08/10 00:22:27;;;;;;;3.67;2.10;;;14.40;80.70;;;;;;5056116;28;20216;-85
2022/08/10 00:24:56;;;;;;;3.13;2.10;;;14.40;80.40;;;;;;5056086;28;20175;-85
2022/08/10 00:27:22;;;;;;;2.17;2.07;;;14.40;80.10;;;;;;5038322;28;20183;-85
2022/08/10 00:29:48;;;;;;;4.73;2.10;;;14.30;80.10;;;;;;5038483;28;20180;-86
2022/08/10 00:32:13;;;;;;;5.97;2.30;;;14.30;80.10;;;;;;5037901;28;20188;-85
2022/08/10 00:34:39;;;;;;;3.43;2.20;;;14.30;80.40;;;;;;5056269;28;20211;-85
2022/08/10 00:37:05;;;;;;;8.10;2.50;;;14.20;80.80;;;;;;5038940;28;20180;-85
2022/08/10 00:39:30;;;;;;;2.17;2.00;;;14.30;80.60;;;;;;5056576;28;20546;-85
2022/08/10 00:41:56;;;;;;;2.70;2.00;;;14.30;80.30;;;;;;5038036;28;20215;-85
2022/08/10 00:44:21;;;;;;;3.57;2.60;;;14.30;80.00;;;;;;5037380;28;20215;-85
2022/08/10 00:46:47;;;;;;;2.30;2.10;;;14.30;80.00;;;;;;5037411;28;20203;-85
2022/08/10 00:49:13;;;;;;;4.47;2.30;;;14.30;79.90;;;;;;5036628;28;20635;-85
2022/08/10 00:51:40;;;;;;;2.93;2.50;;;14.30;79.80;;;;;;5037911;28;20249;-85
2022/08/10 00:54:06;;;;;;;3.33;2.10;;;14.30;79.70;;;;;;5056006;28;20246;-85
2022/08/10 00:56:32;;;;;;;3.07;2.10;;;14.30;79.70;;;;;;5055621;28;20270;-86
2022/08/10 00:58:57;;;;;;;2.13;1.93;;;14.30;79.60;;;;;;5038912;28;20621;-86
2022/08/10 01:01:23;;;;;;;4.13;1.93;;;14.30;79.60;;;;;;5057155;28;20196;-87
2022/08/10 01:03:49;;;;;;;2.97;2.27;;;14.30;79.70;;;;;;5056694;28;20318;-86
2022/08/10 01:06:40;;;;;;;4.40;2.37;;;14.20;80.10;;;;;;5058122;28;20658;-87
2022/08/10 01:09:24;;;;;;;2.60;2.40;;;14.30;79.90;;;;;;5037892;28;20204;-87
2022/08/10 01:12:01;;;;;;;2.57;2.23;;;14.20;80.00;;;;;;5037112;28;20227;-89
2022/08/10 01:14:46;;;;;;;2.20;2.00;;;14.20;79.90;;;;;;5037580;28;20695;-88
2022/08/10 01:17:28;;;;;;;2.30;2.10;;;14.20;80.00;;;;;;5037149;28;20168;-88
2022/08/10 01:20:03;;;;;;;2.40;2.20;;;14.20;79.90;;;;;;5036880;28;20172;-88
2022/08/10 01:22:57;;;;;;;2.60;2.33;;;14.10;79.90;;;;;;5036711;28;20254;-88
2022/08/10 01:26:01;;;;;;;3.53;2.13;;;14.10;79.90;;;;;;5022313;28;20183;-88
2022/08/10 01:28:36;;;;;;;2.70;2.40;;;14.00;79.80;;;;;;5036769;28;20257;-88
2022/08/10 01:31:03;;;;;;;2.50;2.30;;;14.00;79.90;;;;;;5036721;28;20196;-88
2022/08/10 01:33:34;;;;;;;6.77;2.47;;;14.00;79.90;;;;;;5054534;28;20180;-88
2022/08/10 01:36:10;;;;;;;5.57;2.40;;;13.90;80.00;;;;;;5036560;28;20179;-88
2022/08/10 01:38:57;;;;;;;2.83;2.33;;;13.90;80.00;;;;;;5054383;28;20176;-88
2022/08/10 01:41:28;;;;;;;3.10;2.30;;;13.80;80.00;;;;;;5036628;28;20199;-88
2022/08/10 01:44:07;;;;;;;3.43;2.30;;;13.80;80.00;;;;;;5036523;28;20617;-88
2022/08/10 01:46:34;;;;;;;2.60;2.40;;;13.80;79.90;;;;;;5036505;28;20539;-88
2022/08/10 01:49:05;;;;;;;5.57;2.50;;;13.80;79.80;;;;;;5036620;28;20172;-88
2022/08/10 01:52:05;;;;;;;5.60;2.73;;;13.70;79.80;;;;;;5036568;28;20279;-88
2022/08/10 01:54:30;;;;;;;3.20;2.00;;;13.80;79.90;;;;;;5011059;28;20188;-88
2022/08/10 01:56:58;;;;;;;6.03;2.50;;;13.70;79.90;;;;;;5054126;28;20250;-88
2022/08/10 01:59:32;;;;;;;2.70;2.03;;;13.70;79.80;;;;;;5053873;28;20172;-87
2022/08/10 02:02:02;;;;;;;2.10;1.90;;;13.70;79.90;;;;;;5036231;28;20227;-88
2022/08/10 02:04:30;;;;;;;2.40;2.20;;;13.70;79.90;;;;;;5036130;28;20263;-88
2022/08/10 02:06:57;;;;;;;2.47;2.27;;;13.70;79.80;;;;;;5054254;28;20581;-87
2022/08/10 02:09:27;;;;;;;4.80;2.20;;;13.70;79.90;;;;;;5036425;28;20698;-88
2022/08/10 02:11:57;;;;;;;3.17;2.13;;;13.60;79.90;;;;;;5036515;28;20206;-88
2022/08/10 02:14:27;;;;;;;4.60;2.00;;;13.60;79.80;;;;;;5036922;28;20553;-88
2022/08/10 02:16:53;;;;;;;3.20;2.17;;;13.50;79.80;;;;;;5037012;28;20578;-88
2022/08/10 02:19:22;;;;;;;2.23;2.00;;;13.50;79.80;;;;;;5054166;28;20709;-88
2022/08/10 02:21:49;;;;;;;2.27;1.93;;;13.50;79.80;;;;;;5053543;28;20640;-88
2022/08/10 02:24:17;;;;;;;2.27;2.07;;;13.40;79.80;;;;;;5053643;28;20253;-88
2022/08/10 02:26:44;;;;;;;3.33;2.20;;;13.40;79.80;;;;;;5035940;28;20176;-88
2022/08/10 02:29:13;;;;;;;2.23;2.03;;;13.40;80.20;;;;;;5053672;28;20167;-88
2022/08/10 02:31:41;;;;;;;2.80;2.57;;;13.30;80.50;;;;;;5035735;28;20196;-88
2022/08/10 02:34:10;;;;;;;2.27;2.10;;;13.30;80.40;;;;;;5035784;28;20190;-88
2022/08/10 02:36:40;;;;;;;5.43;2.10;;;13.30;80.50;;;;;;5053708;28;20208;-88
2022/08/10 02:39:07;;;;;;;2.50;2.30;;;13.30;80.60;;;;;;5053662;28;20210;-88
2022/08/10 02:41:41;;;;;;;2.73;2.30;;;13.30;80.60;;;;;;5035628;28;20200;-88
2022/08/10 02:44:20;;;;;;;4.53;2.60;;;13.20;81.30;;;;;;5036143;28;20204;-88
2022/08/10 02:46:51;;;;;;;2.63;2.43;;;13.00;81.70;;;;;;5035868;28;20164;-88
2022/08/10 02:49:25;;;;;;;4.17;2.50;;;12.80;82.10;;;;;;5035676;28;20587;-89
2022/08/10 02:51:57;;;;;;;5.00;2.60;;;12.50;82.60;;;;;;5035770;28;20202;-88
2022/08/10 02:54:27;;;;;;;6.50;3.07;;;12.30;82.90;;;;;;5035966;28;20230;-88
2022/08/10 02:57:05;;;;;;;2.97;2.77;;;12.30;83.30;;;;;;5036441;28;20226;-88
2022/08/10 02:59:44;;;;;;;2.60;2.40;;;12.20;83.50;;;;;;5053639;28;20160;-88
2022/08/10 03:02:17;;;;;;;3.87;2.53;;;12.30;83.50;;;;;;5036213;28;20222;-88
2022/08/10 03:04:47;;;;;;;3.27;2.93;;;12.40;83.50;;;;;;5035687;28;20218;-88
2022/08/10 03:07:17;;;;;;;3.20;2.90;;;12.50;83.40;;;;;;5053074;28;20175;-88
2022/08/10 03:09:46;;;;;;;6.03;2.47;;;12.50;83.20;;;;;;5035483;28;20172;-88
2022/08/10 03:12:13;;;;;;;3.13;2.70;;;12.60;82.90;;;;;;5036444;28;20559;-88
2022/08/10 03:14:40;;;;;;;3.57;2.63;;;12.60;82.60;;;;;;5039444;28;20182;-88
2022/08/10 03:17:08;;;;;;;2.83;2.63;;;12.60;82.60;;;;;;5039328;28;20176;-88
2022/08/10 03:19:36;;;;;;;3.20;2.80;;;12.60;82.60;;;;;;5039607;28;20206;-88
2022/08/10 03:22:03;;;;;;;3.23;2.80;;;12.50;82.90;;;;;;5038800;28;20222;-88
2022/08/10 03:24:30;;;;;;;2.87;2.67;;;12.60;83.00;;;;;;5056829;28;20176;-88
2022/08/10 03:26:56;;;;;;;3.93;2.80;;;12.60;83.00;;;;;;5056917;28;20175;-89
2022/08/10 03:29:23;;;;;;;2.90;2.60;;;12.50;83.00;;;;;;5038916;28;20177;-88
2022/08/10 03:31:50;;;;;;;5.13;2.83;;;12.50;83.00;;;;;;5039227;28;20202;-88
2022/08/10 03:34:18;;;;;;;3.07;2.77;;;12.50;82.90;;;;;;5056840;28;20601;-88
2022/08/10 03:36:44;;;;;;;6.03;2.27;;;12.50;82.80;;;;;;5038908;28;20649;-88
2022/08/10 03:39:10;;;;;;;2.50;2.30;;;12.50;82.80;;;;;;5039324;28;20184;-88
2022/08/10 03:41:47;;;;;;;2.33;2.17;;;12.50;82.80;;;;;;5039200;28;20203;-88
2022/08/10 03:44:18;;;;;;;2.80;2.60;;;12.50;82.70;;;;;;5039241;28;20204;-88
2022/08/10 03:46:45;;;;;;;3.80;3.00;;;12.50;82.90;;;;;;5039406;28;20168;-88
2022/08/10 03:49:12;;;;;;;3.63;2.67;;;12.40;83.30;;;;;;5039882;28;20180;-87
2022/08/10 03:51:38;;;;;;;3.00;2.70;;;12.50;83.20;;;;;;5039846;28;20591;-88
2022/08/10 03:54:04;;;;;;;3.30;2.73;;;12.40;83.00;;;;;;5057107;28;20195;-88
2022/08/10 03:56:31;;;;;;;2.80;2.60;;;12.50;83.00;;;;;;5039244;28;20189;-88
2022/08/10 03:58:56;;;;;;;3.47;2.50;;;12.50;82.90;;;;;;5056953;28;20199;-87
2022/08/10 04:01:22;;;;;;;4.17;2.67;;;12.50;82.80;;;;;;5039469;28;20234;-88
2022/08/10 04:03:48;;;;;;;7.63;2.83;;;12.50;82.60;;;;;;5038770;28;20200;-88
2022/08/10 04:06:14;;;;;;;2.80;2.60;;;12.50;83.00;;;;;;5039007;28;20211;-87
2022/08/10 04:08:43;;;;;;;3.13;2.63;;;12.60;82.70;;;;;;5039425;28;20184;-89
2022/08/10 04:11:10;;;;;;;3.10;2.80;;;12.60;82.30;;;;;;5056639;28;20196;-88
2022/08/10 04:13:36;;;;;;;3.10;2.77;;;12.70;82.40;;;;;;5039394;28;20270;-87
2022/08/10 04:16:04;;;;;;;3.30;2.90;;;12.70;82.10;;;;;;5039204;28;20186;-88
2022/08/10 04:18:31;;;;;;;4.10;3.50;;;12.60;82.60;;;;;;5056855;28;20267;-88
2022/08/10 04:21:07;;;;;;;3.40;3.10;;;12.50;83.00;;;;;;5057063;28;20303;-88
2022/08/10 04:23:37;;;;;;;3.70;3.40;;;12.40;83.50;;;;;;5037038;28;20709;-88
2022/08/10 04:26:03;;;;;;;3.20;2.90;;;12.40;83.50;;;;;;5037102;28;20172;-88
2022/08/10 04:28:30;;;;;;;4.77;3.50;;;12.50;83.60;;;;;;5037547;28;20566;-88
2022/08/10 04:30:57;;;;;;;4.20;3.63;;;12.60;83.70;;;;;;5037564;28;20266;-89
2022/08/10 04:33:25;;;;;;;4.33;3.33;;;12.70;83.70;;;;;;5037213;28;20191;-88
2022/08/10 04:35:51;;;;;;;4.97;3.27;;;12.80;83.60;;;;;;5055222;28;20179;-88
2022/08/10 04:38:17;;;;;;;4.27;3.63;;;12.70;83.80;;;;;;5037440;28;20180;-88
2022/08/10 04:40:45;;;;;;;3.87;3.50;;;12.90;83.70;;;;;;5054997;28;20200;-88
2022/08/10 04:43:11;;;;;;;7.50;3.97;;;13.00;83.70;;;;;;5054913;28;20206;-87
2022/08/10 04:45:36;;;;;;;5.80;4.10;;;13.10;84.00;;;;;;5037113;28;20177;-89
2022/08/10 04:48:02;;;;;;;4.63;3.60;;;13.10;84.70;;;;;;5037146;28;20176;-88
2022/08/10 04:50:28;;;;;;;5.87;4.13;;;13.20;85.30;;;;;;5037027;28;20249;-87
2022/08/10 04:52:53;;;;;;;7.63;4.10;;;13.20;85.80;;;;;;5037087;28;20190;-88
2022/08/10 04:55:19;;;;;;;8.17;4.87;;;13.20;86.30;;;;;;5054850;28;20180;-88
2022/08/10 04:57:45;;;;;;;5.63;5.13;;;13.20;86.70;;;;;;5054836;28;20175;-88
2022/08/10 05:00:11;;;;;;;6.20;4.90;;;13.20;87.00;;;;;;5036768;28;20290;-89
2022/08/10 05:02:36;;;;;;;11.03;4.73;;;13.20;87.30;;;;;;5054577;28;20199;-88
2022/08/10 05:05:02;;;;;;;8.83;5.17;;;13.20;87.60;;;;;;5054776;28;20172;-88
2022/08/10 05:07:28;;;;;;;8.40;5.33;;;13.30;88.00;;;;;;5036711;28;20677;-88
2022/08/10 05:09:53;;;;;;;7.03;5.73;;;13.40;88.40;;;;;;5036784;28;20180;-88
2022/08/10 05:12:19;;;;;;;6.17;5.57;;;13.50;88.80;;;;;;5054339;28;20219;-88
2022/08/10 05:14:45;;;;;;;10.93;5.80;;;13.60;89.00;;;;;;5036575;28;20184;-88
2022/08/10 05:17:10;;;;;;;6.30;5.40;;;13.70;89.20;;;;;;5036597;28;20184;-89
2022/08/10 05:19:36;;;;;;;8.83;5.50;;;13.70;89.20;;;;;;5054262;28;20685;-88
2022/08/10 05:22:03;;;;;;;9.17;5.93;;;13.80;89.30;;;;;;5036154;28;20215;-89
2022/08/10 05:24:29;;;;;;;7.87;6.50;;;13.80;89.30;;;;;;5054460;28;20225;-89
2022/08/10 05:26:55;;;;;;;6.13;5.53;;;13.90;89.50;;;;;;5036507;28;20189;-89
2022/08/10 05:29:21;;;;;;;10.97;5.83;;;14.00;89.50;;;;;;5036390;28;20583;-89
2022/08/10 05:31:47;;;;;;;11.60;5.50;;;14.00;89.60;;;;;;5036256;28;20192;-88
2022/08/10 05:34:12;;;;;;;6.83;5.27;;;14.20;89.50;;;;;;5054176;28;20172;-88
2022/08/10 05:36:39;;;;;;;6.30;5.60;;;14.20;89.40;;;;;;5035942;28;20524;-89
2022/08/10 05:39:05;;;;;;;5.70;5.03;;;14.30;89.30;;;;;;5053970;28;20338;-88
2022/08/10 05:41:31;;;;;;;6.13;5.40;;;14.30;89.20;;;;;;5036025;28;20224;-89
2022/08/10 05:43:57;;;;;;;7.40;5.47;;;14.50;89.10;;;;;;5036010;28;20204;-89
2022/08/10 05:46:22;;;;;;;7.00;4.73;;;14.60;88.90;;;;;;5036155;28;20172;-89
2022/08/10 05:48:48;;;;;;;6.83;5.50;;;14.70;88.90;;;;;;5053934;28;20164;-87
2022/08/10 05:51:15;;;;;;;8.70;5.00;;;14.80;88.80;;;;;;5035906;28;20196;-88
2022/08/10 05:53:40;;;;;;;6.97;5.20;;;14.90;88.80;;;;;;5054125;28;20180;-88
2022/08/10 05:56:07;;;;;;;5.47;4.97;;;15.00;88.60;;;;;;5053956;28;20172;-89
2022/08/10 05:58:34;;;;;;;5.10;4.60;;;15.10;88.40;;;;;;5035769;28;20190;-89
2022/08/10 06:01:04;;;;;;;9.27;4.90;;;15.30;88.40;;;;;;5053465;28;20203;-88
2022/08/10 06:03:34;;;;;;;10.20;5.37;;;15.40;88.30;;;;;;5053436;28;20188;-88
2022/08/10 06:06:02;;;;;;;5.90;5.07;;;15.50;88.10;;;;;;5035660;28;20594;-88
2022/08/10 06:08:33;;;;;;;6.87;4.43;;;15.60;88.00;;;;;;5035617;28;20168;-88
2022/08/10 06:11:02;;;;;;;6.23;4.70;;;15.80;88.00;;;;;;5035614;28;20203;-88
2022/08/10 06:16:18;;;;;;;6.43;4.53;;;16.10;88.00;;;;;;5053776;28;20167;-88
2022/08/10 06:18:45;;;;;;;6.13;4.72;;;16.10;87.70;;;;;;5053388;28;20176;-88
2022/08/10 06:21:13;;;;;;;12.90;4.60;;;16.30;87.80;;;;;;5053034;28;20257;-89
2022/08/10 06:23:39;;;;;;;5.55;4.22;;;16.40;87.70;;;;;;5035289;28;20200;-88
2022/08/10 06:26:06;;;;;;;5.97;4.97;;;16.50;87.50;;;;;;5035341;28;20223;-88
2022/08/10 06:28:36;;;;;;;6.35;4.53;;;16.60;87.40;;;;;;5035456;28;20259;-88
2022/08/10 06:31:04;;;;;;;4.88;3.95;;;16.70;87.10;;;;;;5035291;28;20203;-88
2022/08/10 06:33:32;;;;;;;5.57;4.22;;;16.80;87.00;;;;;;5035336;28;20183;-89
2022/08/10 06:35:59;;;;;;;6.10;4.32;;;17.00;86.90;;;;;;5035230;28;20176;-89
2022/08/10 06:38:29;;;;;;;9.73;4.32;;;17.10;86.40;;;;;;5035309;28;20267;-88
2022/08/10 06:40:59;;;;;;;8.00;4.13;;;17.20;86.50;;;;;;5035191;28;20333;-89
2022/08/10 06:43:27;;;;;;;4.32;3.60;;;17.30;85.80;;;;;;5035322;28;20196;-86
2022/08/10 06:46:02;;;;;;;10.00;3.72;;;17.50;85.90;;;;;;5053074;28;20167;-88
2022/08/10 06:48:49;;;;;;;8.60;3.60;;;17.70;85.50;;;;;;5055576;28;20201;-88
2022/08/10 06:51:20;;;;;;;6.20;3.05;;;17.80;85.10;;;;;;5039491;28;20187;-88
2022/08/10 06:53:49;;;;;;;3.28;2.97;;;18.00;84.70;;;;;;5057269;28;20160;-88
2022/08/10 06:56:18;;;;;;;8.27;3.15;;;18.20;84.30;;;;;;5039231;28;20175;-88
2022/08/10 06:58:49;;;;;;;4.45;2.70;;;18.30;83.60;;;;;;5039804;28;20528;-88
2022/08/10 07:01:19;;;;;;;3.35;3.05;;;18.50;83.10;;;;;;5039169;28;20203;-89
2022/08/10 07:03:56;;;;;;;4.03;2.30;;;18.60;82.80;;;;;;5039137;28;20202;-88
2022/08/10 07:06:22;;;;;;;5.82;2.28;;;18.70;82.40;;;;;;5039245;28;20237;-89
2022/08/10 07:08:50;;;;;;;6.10;2.40;;;18.80;82.20;;;;;;5039256;28;20172;-88
2022/08/10 07:11:19;;;;;;;8.75;2.45;;;18.90;81.30;;;;;;5038848;28;20218;-90
2022/08/10 07:13:46;;;;;;;6.80;2.40;;;19.00;80.70;;;;;;5056746;28;20191;-89
2022/08/10 07:16:13;;;;;;;5.07;2.22;;;19.10;79.80;;;;;;5056634;28;20331;-88
2022/08/10 07:18:41;;;;;;;5.13;2.10;;;19.20;78.80;;;;;;5038890;28;20263;-88
2022/08/10 07:21:07;;;;;;;2.80;1.70;;;19.30;78.70;;;;;;5038715;28;20314;-88
2022/08/10 07:23:34;;;;;;;5.38;2.15;;;19.30;78.80;;;;;;5056556;28;20187;-89
2022/08/10 07:26:00;;;;;;;7.50;1.90;;;19.50;78.10;;;;;;5056614;28;20226;-89
2022/08/10 07:28:28;;;;;;;4.72;2.15;;;19.70;77.70;;;;;;5056512;28;20164;-88
2022/08/10 07:30:56;;;;;;;1.65;1.50;;;19.70;76.10;;;;;;5056434;28;20187;-89
2022/08/10 07:33:23;;;;;;;3.72;1.73;;;19.80;76.70;;;;;;5056419;28;20168;-89
2022/08/10 07:35:49;;;;;;;3.55;1.90;;;19.90;75.60;;;;;;5038499;28;20230;-88
2022/08/10 07:38:20;;;;;;;8.10;1.30;;;20.00;76.00;;;;;;5056357;28;20172;-89
2022/08/10 07:40:49;;;;;;;2.55;1.40;;;20.10;73.30;;;;;;5038845;28;20704;-88
2022/08/10 07:43:17;;;;;;;6.80;2.20;;;20.10;73.10;;;;;;5056089;28;20196;-89
2022/08/10 07:45:45;;;;;;;2.15;1.60;;;20.40;72.30;;;;;;5056080;28;20194;-88
2022/08/10 07:48:29;;;;;;;2.13;1.48;;;20.50;72.20;;;;;;5038242;28;20668;-89
2022/08/10 07:50:59;;;;;;;2.90;1.45;;;20.50;72.20;;;;;;5056183;28;20203;-88
2022/08/10 07:53:32;;;;;;;2.05;1.35;;;20.70;71.50;;;;;;5056104;28;20661;-88
2022/08/10 07:56:00;;;;;;;10.18;1.65;;;20.80;70.20;;;;;;5055922;28;20180;-89
2022/08/10 07:58:30;;;;;;;5.15;1.35;;;20.90;69.30;;;;;;5055690;28;20183;-89
2022/08/10 08:00:57;;;;;;;2.45;1.08;;;21.00;69.40;;;;;;5037983;28;20285;-89
2022/08/10 08:03:27;;;;;;;1.38;1.00;;;21.00;67.50;;;;;;5037798;28;20204;-89
2022/08/10 08:05:54;;;;;;;6.53;1.10;;;21.20;67.60;;;;;;5038720;28;20164;-89
2022/08/10 08:08:21;;;;;;;4.10;1.10;;;21.20;66.60;;;;;;5037999;28;20183;-89
2022/08/10 08:10:47;;;;;;;1.30;1.17;;;21.20;66.40;;;;;;5055656;28;20188;-88
2022/08/10 08:13:14;;;;;;;1.17;0.90;;;21.20;66.90;;;;;;5037789;28;20188;-89
2022/08/10 08:15:42;;;;;;;4.88;1.55;;;21.20;65.00;;;;;;5055666;28;20665;-89
2022/08/10 08:18:09;;;;;;;1.65;1.00;;;21.20;64.60;;;;;;5055505;28;20650;-89
2022/08/10 08:20:35;;;;;;;3.20;1.27;;;21.20;66.00;;;;;;5037445;28;20200;-89
2022/08/10 08:23:03;;;;;;;8.90;1.10;;;21.40;65.00;;;;;;5037567;28;20278;-89
2022/08/10 08:25:29;;;;;;;4.70;1.58;;;21.40;65.60;;;;;;5055411;28;20172;-89
2022/08/10 08:27:58;;;;;;;2.72;1.00;;;21.50;65.50;;;;;;5037525;28;20176;-90
2022/08/10 08:30:23;;;;;;;1.60;1.10;;;21.60;65.10;;;;;;5037461;28;20620;-90
2022/08/10 08:32:51;;;;;;;2.10;1.45;;;21.60;65.10;;;;;;5037534;28;20210;-91
2022/08/10 08:35:18;;;;;;;1.92;1.10;;;21.70;65.90;;;;;;5037536;28;20179;-91
2022/08/10 08:37:46;;;;;;;4.82;1.40;;;21.80;67.00;;;;;;5037503;28;20176;-90
2022/08/10 08:40:22;;;;;;;3.30;1.40;;;21.90;65.60;;;;;;5037344;28;20202;-89
2022/08/10 08:43:23;;;;;;;2.45;1.38;;;21.90;64.80;;;;;;5055068;28;20192;-90
2022/08/10 08:45:54;;;;;;;4.00;1.27;;;22.10;65.60;;;;;;4974354;28;20170;-90
2022/08/10 08:48:36;;;;;;;1.85;1.30;;;22.30;65.10;;;;;;5027026;28;20180;-90
2022/08/10 08:51:36;;;;;;;2.20;1.15;;;22.40;64.90;;;;;;5055468;28;20195;-90
2022/08/10 08:54:22;;;;;;;2.10;1.10;;;22.50;64.80;;;;;;5037464;28;20176;-90
2022/08/10 08:57:06;;;;;;;2.40;1.23;;;22.70;63.50;;;;;;5037252;28;20172;-90
2022/08/10 08:59:38;;;;;;;4.50;1.00;;;22.90;62.20;;;;;;5036997;28;20254;-88
2022/08/10 09:02:13;;;;;;;4.35;1.02;;;22.90;60.20;;;;;;5036976;28;20196;-90
2022/08/10 09:05:03;;;;;;;3.05;0.80;;;23.10;61.20;;;;;;5036749;28;20263;-90
2022/08/10 09:07:48;;;;;;;1.88;1.02;;;23.30;59.20;;;;;;5036769;28;20259;-89
2022/08/10 09:10:34;;;;;;;1.52;1.00;;;23.20;57.80;;;;;;5053854;28;20181;-89
2022/08/10 09:13:07;;;;;;;1.60;1.00;;;23.30;58.40;;;;;;5036862;28;20168;-90
2022/08/10 09:15:44;;;;;;;1.17;0.95;;;23.40;58.70;;;;;;5054416;28;20172;-90
2022/08/10 09:18:26;;;;;;;2.83;0.77;;;23.50;58.60;;;;;;5036825;28;20160;-90
2022/08/10 09:21:04;;;;;;;1.67;0.90;;;23.50;57.30;;;;;;5036790;28;20207;-89
2022/08/10 09:24:01;;;;;;;4.78;1.27;;;23.60;57.60;;;;;;5036732;28;20723;-89
2022/08/10 09:26:39;;;;;;;0.70;0.70;;;23.80;58.30;;;;;;5036513;28;20186;-89
2022/08/10 09:29:06;;;;;;;5.60;1.00;;;23.90;56.90;;;;;;5036700;28;20206;-90
2022/08/10 09:31:45;;;;;;;1.38;0.80;;;24.10;56.40;;;;;;5036699;28;20665;-89
2022/08/10 09:34:39;;;;;;;1.10;1.00;;;24.20;57.20;;;;;;5036597;28;20164;-90
2022/08/10 09:37:30;;;;;;;1.90;0.70;;;24.50;56.00;;;;;;5036700;28;20175;-91
2022/08/10 09:40:10;;;;;;;0.90;0.50;;;24.60;52.20;;;;;;5036280;28;20168;-88
2022/08/10 09:43:12;;;;;;;1.65;0.57;;;24.40;50.30;;;;;;5036231;28;20673;-89
2022/08/10 09:45:55;;;;;;;2.05;0.50;;;24.20;49.60;;;;;;5036211;28;20167;-89
2022/08/10 09:48:49;;;;;;;5.40;1.00;;;24.20;52.10;;;;;;5036189;28;20172;-88
2022/08/10 09:51:43;;;;;;;4.05;0.82;;;24.00;54.20;;;;;;5036067;28;20674;-88
2022/08/10 09:54:33;;;;;;;14.48;1.52;;;24.30;55.80;;;;;;5036175;28;20658;-87
2022/08/10 09:57:55;;;;;;;2.80;0.80;;;24.50;54.50;;;;;;5054702;28;20161;-87
2022/08/10 10:00:25;;;;;;;1.67;1.10;;;24.40;51.00;;;;;;4957234;28;20178;-87
2022/08/10 10:03:12;;;;;;;1.92;0.90;;;24.50;52.90;;;;;;4973420;28;20237;-88
2022/08/10 10:05:48;;;;;;;2.28;0.73;;;24.70;53.90;;;;;;5021979;28;20184;-90
2022/08/10 10:08:58;;;;;;;1.95;1.00;;;24.70;51.50;;;;;;5053550;28;20245;-88
2022/08/10 10:11:46;;;;;;;2.50;1.40;;;24.60;52.80;;;;;;4982736;28;20253;-87
2022/08/10 10:14:23;;;;;;;2.15;1.20;;;24.60;54.70;;;;;;5036152;28;20716;-87
2022/08/10 10:17:06;;;;;;;2.72;1.10;;;24.60;53.90;;;;;;5053555;28;20168;-86
2022/08/10 10:19:43;;;;;;;2.90;0.75;;;24.70;55.00;;;;;;5035589;28;20640;-88
2022/08/10 10:22:25;;;;;;;4.70;0.90;;;25.00;54.40;;;;;;5052480;28;20215;-88
2022/08/10 10:25:00;;;;;;;4.25;0.80;;;25.00;51.40;;;;;;5060032;22;20219;-87
2022/08/10 10:27:35;;;;;;;3.45;0.98;;;24.90;51.00;;;;;;5036369;28;20183;-88
2022/08/10 10:30:06;;;;;;;1.40;0.60;;;25.00;52.30;;;;;;5053524;28;20217;-85
2022/08/10 10:33:05;;;;;;;1.50;0.80;;;25.10;51.20;;;;;;5035636;28;20175;-85
2022/08/10 10:35:46;;;;;;;2.13;0.70;;;25.10;50.90;;;;;;5053421;28;20196;-86
2022/08/10 10:38:12;;;;;;;2.53;0.68;;;25.00;51.10;;;;;;5053189;28;20665;-85
2022/08/10 10:40:44;;;;;;;2.17;1.10;;;25.20;50.20;;;;;;5035498;28;20658;-85
2022/08/10 10:43:31;;;;;;;4.32;1.10;;;25.20;50.20;;;;;;5035384;28;20294;-85
2022/08/10 10:45:56;;;;;;;1.20;0.90;;;25.30;50.10;;;;;;5035592;28;20160;-85
2022/08/10 10:48:38;;;;;;;1.10;0.93;;;25.50;50.90;;;;;;5053568;28;20175;-85
2022/08/10 10:51:35;;;;;;;1.30;0.90;;;25.70;50.30;;;;;;5035288;28;20161;-85
2022/08/10 10:54:23;;;;;;;1.35;0.82;;;26.00;48.50;;;;;;5051851;28;20286;-86
2022/08/10 10:57:00;;;;;;;4.30;0.95;;;26.60;46.90;;;;;;5053350;28;20272;-85
2022/08/10 10:59:29;;;;;;;1.48;0.70;;;26.60;46.60;;;;;;5053269;28;20176;-85
2022/08/10 11:02:52;;;;;;;0.90;0.73;;;26.50;46.70;;;;;;5035159;28;20245;-85
2022/08/10 11:05:32;;;;;;;1.50;0.90;;;26.70;46.90;;;;;;4956042;28;20216;-86
2022/08/10 11:08:14;;;;;;;2.53;0.60;;;26.30;44.90;;;;;;4956225;28;20175;-85
2022/08/10 11:10:52;;;;;;;2.55;0.80;;;26.20;45.70;;;;;;5037358;28;20262;-86
2022/08/10 11:13:27;;;;;;;4.00;1.00;;;26.00;45.30;;;;;;5034845;28;20175;-86
2022/08/10 11:16:05;;;;;;;1.52;0.90;;;25.80;46.10;;;;;;5035109;28;20266;-86
2022/08/10 11:18:33;;;;;;;2.53;1.17;;;26.10;45.30;;;;;;5052757;28;20562;-86
2022/08/10 11:21:37;;;;;;;2.90;0.70;;;26.20;45.90;;;;;;5034984;28;20217;-85
2022/08/10 11:24:17;;;;;;;2.67;0.90;;;26.60;47.40;;;;;;5034498;28;20230;-86
2022/08/10 11:27:09;;;;;;;8.98;1.67;;;26.60;44.60;;;;;;5053162;28;20153;-86
2022/08/10 11:29:39;;;;;;;0.63;0.60;;;26.60;45.20;;;;;;5052611;28;20646;-85
2022/08/10 11:32:18;;;;;;;2.05;0.60;;;26.40;43.80;;;;;;5053052;28;20182;-84
2022/08/10 11:35:28;;;;;;;11.70;1.95;;;26.20;45.00;;;;;;5055210;28;20696;-86
2022/08/10 11:37:57;;;;;;;3.90;0.90;;;25.90;46.20;;;;;;5047484;28;20228;-86
2022/08/10 11:40:34;;;;;;;2.83;0.80;;;26.10;44.90;;;;;;5038195;28;20183;-85
2022/08/10 11:43:20;;;;;;;6.07;0.82;;;26.20;45.60;;;;;;5038221;28;20604;-85
2022/08/10 11:45:53;;;;;;;3.47;0.68;;;26.20;44.50;;;;;;5038269;28;20172;-85
2022/08/10 11:48:24;;;;;;;1.88;1.15;;;26.30;44.40;;;;;;5038254;28;20160;-85
2022/08/10 11:51:04;;;;;;;5.78;1.30;;;26.40;44.20;;;;;;5038420;28;20166;-85
2022/08/10 11:53:36;;;;;;;3.92;0.82;;;26.30;43.90;;;;;;5056101;28;20214;-85
2022/08/10 11:56:02;;;;;;;4.43;0.80;;;26.30;44.10;;;;;;5038199;28;20214;-86
2022/08/10 12:01:30;;;;;;;0.95;0.70;;;26.30;44.80;;;;;;5055909;28;20541;-85
2022/08/10 12:04:02;;;;;;;3.00;0.82;;;26.30;44.90;;;;;;5038680;28;20212;-85
2022/08/10 12:06:28;;;;;;;1.58;0.80;;;26.20;44.40;;;;;;5038005;28;20168;-85
2022/08/10 12:08:55;;;;;;;8.85;1.00;;;26.40;45.60;;;;;;5037846;28;20180;-85
2022/08/10 12:11:23;;;;;;;2.42;1.02;;;26.70;45.60;;;;;;5038007;28;20172;-85
2022/08/10 12:14:12;;;;;;;1.02;0.70;;;26.70;44.70;;;;;;5037861;28;20678;-85
2022/08/10 12:16:41;;;;;;;2.72;0.82;;;26.70;45.20;;;;;;5041197;28;20238;-86
2022/08/10 12:19:37;;;;;;;1.90;0.82;;;26.70;44.90;;;;;;5037604;28;20211;-86
2022/08/10 12:22:10;;;;;;;1.55;0.80;;;26.70;45.00;;;;;;5037624;28;20172;-86
2022/08/10 12:24:52;;;;;;;5.22;0.95;;;26.80;43.30;;;;;;5055100;28;20203;-85
2022/08/10 12:27:32;;;;;;;3.33;0.90;;;26.70;42.80;;;;;;5037617;28;20623;-85
2022/08/10 12:30:04;;;;;;;1.35;0.90;;;27.00;44.70;;;;;;5056257;28;20661;-85
2022/08/10 12:32:47;;;;;;;1.60;1.00;;;27.30;44.80;;;;;;5039532;28;20532;-84
2022/08/10 12:35:26;;;;;;;3.60;1.40;;;27.30;44.20;;;;;;5056186;28;20220;-84
2022/08/10 12:38:16;;;;;;;2.97;0.85;;;27.40;44.90;;;;;;5038685;28;20172;-85
2022/08/10 12:40:46;;;;;;;2.97;0.95;;;27.10;43.90;;;;;;5037880;28;20175;-85
2022/08/10 12:43:20;;;;;;;22.15;1.80;;;27.00;44.50;;;;;;5056451;28;20192;-84
2022/08/10 12:46:00;;;;;;;2.85;1.13;;;27.00;43.90;;;;;;5056118;28;20153;-84
2022/08/10 12:48:49;;;;;;;15.90;1.60;;;27.10;43.00;;;;;;5038744;28;20233;-84
2022/08/10 12:51:23;;;;;;;9.15;0.98;;;27.20;43.30;;;;;;5038152;28;20164;-84
2022/08/10 12:53:55;;;;;;;6.07;1.25;;;27.20;42.50;;;;;;5055340;28;20227;-86
2022/08/10 12:56:28;;;;;;;1.58;0.65;;;27.50;43.50;;;;;;5055180;28;20585;-85
2022/08/10 12:58:55;;;;;;;1.25;0.80;;;27.80;41.90;;;;;;5037090;28;20676;-85
2022/08/10 13:01:26;;;;;;;2.53;0.88;;;27.60;43.30;;;;;;5055030;28;20233;-85
2022/08/10 13:03:59;;;;;;;2.47;0.90;;;27.90;42.60;;;;;;5036722;28;20212;-85
2022/08/10 13:06:26;;;;;;;4.20;1.33;;;28.30;42.00;;;;;;5054636;28;20149;-85
2022/08/10 13:09:08;;;;;;;2.90;0.85;;;28.30;42.60;;;;;;5054594;28;20608;-86
2022/08/10 13:11:58;;;;;;;3.88;0.80;;;28.10;42.40;;;;;;5054945;28;20152;-84
2022/08/10 13:14:27;;;;;;;1.33;1.00;;;27.80;43.80;;;;;;5055632;28;20191;-85
2022/08/10 13:16:56;;;;;;;1.67;1.00;;;27.50;43.70;;;;;;5037498;28;20187;-84
2022/08/10 13:19:23;;;;;;;3.20;0.75;;;27.20;44.90;;;;;;5037427;28;20183;-85